Time;durP1;ratioP1;P1;durP2;ratioP2;P2;SDS_P1;SDS_P2;PMS_P1;PMS_P2;Temp;Humidity;BMP_temperature;BMP_pressure;BME280_temperature;BME280_humidity;BME280_pressure;Samples;Min_cycle;Max_cycle;Signal;HPM_P1;HPM_P2
2021/03/21 00:01:41;;;;;;;11.43;6.82;;;-3.10;68.10;;;-4.80;54.44;95363.66;5016141;28;20291;-84
2021/03/21 00:04:10;;;;;;;11.23;7.20;;;-3.20;68.20;;;-4.82;54.36;95368.88;5016010;28;20299;-83
2021/03/21 00:06:37;;;;;;;10.20;7.05;;;-3.20;68.20;;;-4.84;54.29;95365.56;5015856;28;20224;-83
2021/03/21 00:09:05;;;;;;;11.32;6.45;;;-3.20;68.20;;;-4.85;53.87;95359.59;5015926;28;20239;-81
2021/03/21 00:11:33;;;;;;;12.50;6.72;;;-3.30;68.10;;;-4.87;54.04;95356.34;5032365;28;20217;-83
2021/03/21 00:14:01;;;;;;;12.85;7.43;;;-3.30;68.10;;;-4.87;54.08;95363.16;5015960;28;20277;-83
2021/03/21 00:16:28;;;;;;;9.40;6.13;;;-3.30;68.20;;;-4.94;54.36;95349.91;5032322;28;20478;-83
2021/03/21 00:18:54;;;;;;;12.32;7.45;;;-3.30;68.20;;;-4.88;54.34;95356.41;5032308;28;20199;-83
2021/03/21 00:21:22;;;;;;;10.18;6.78;;;-3.30;68.30;;;-4.87;54.11;95345.25;5015980;28;20575;-83
2021/03/21 00:23:49;;;;;;;13.05;6.78;;;-3.30;68.40;;;-4.86;54.40;95346.91;5031991;28;20255;-84
2021/03/21 00:26:16;;;;;;;11.95;6.35;;;-3.30;68.40;;;-4.89;54.34;95347.91;5044720;28;20316;-82
2021/03/21 00:28:42;;;;;;;12.23;7.00;;;-3.30;68.30;;;-4.88;54.51;95341.88;5015756;28;20197;-83
2021/03/21 00:31:14;;;;;;;13.00;7.30;;;-3.30;68.40;;;-4.89;54.50;95336.88;5048609;28;20268;-82
2021/03/21 00:33:42;;;;;;;12.52;6.93;;;-3.40;68.40;;;-4.90;54.26;95328.34;5031613;28;20200;-83
2021/03/21 00:36:14;;;;;;;11.50;6.13;;;-3.30;69.20;;;-4.88;54.11;95338.50;5031657;28;20728;-83
2021/03/21 00:38:48;;;;;;;9.00;6.25;;;-3.30;68.40;;;-4.89;54.27;95330.00;5048527;28;20193;-82
2021/03/21 00:41:19;;;;;;;9.68;6.25;;;-3.40;68.20;;;-4.92;54.03;95312.28;5031533;28;20224;-83
2021/03/21 00:43:47;;;;;;;13.15;6.63;;;-3.40;68.20;;;-4.92;54.10;95319.13;5031649;28;20209;-83
2021/03/21 00:46:14;;;;;;;9.82;6.03;;;-3.40;68.10;;;-4.94;53.96;95308.97;5034187;28;20224;-83
2021/03/21 00:48:45;;;;;;;7.97;5.72;;;-3.40;68.10;;;-5.00;53.64;95306.78;5036136;28;20248;-82
2021/03/21 00:51:14;;;;;;;10.77;6.22;;;-3.40;68.10;;;-4.99;53.51;95308.41;5019405;28;20278;-83
2021/03/21 00:53:41;;;;;;;8.93;5.57;;;-3.40;68.00;;;-5.01;53.90;95300.00;5035708;28;20200;-83
2021/03/21 00:56:18;;;;;;;7.25;5.22;;;-3.40;68.00;;;-5.02;53.57;95306.03;5051466;28;20713;-83
2021/03/21 00:58:45;;;;;;;10.25;5.68;;;-3.40;68.00;;;-5.07;53.92;95296.06;5039274;28;20250;-83
2021/03/21 01:01:12;;;;;;;8.65;5.72;;;-3.50;68.10;;;-5.06;53.75;95290.03;5071990;28;20234;-84
2021/03/21 01:03:39;;;;;;;10.05;5.00;;;-3.50;68.10;;;-5.02;53.74;95291.50;5072430;28;20203;-83
2021/03/21 01:06:07;;;;;;;7.75;5.28;;;-3.50;68.10;;;-5.02;53.61;95288.94;5055672;28;20216;-83
2021/03/21 01:08:38;;;;;;;8.57;5.13;;;-3.50;68.10;;;-5.02;53.97;95277.88;5037828;28;20195;-83
2021/03/21 01:11:29;;;;;;;8.57;6.10;;;-3.50;68.10;;;-5.07;53.89;95267.09;5002312;28;20247;-83
2021/03/21 01:13:57;;;;;;;8.30;5.38;;;-3.50;68.20;;;-5.03;53.71;95271.13;5035524;28;20274;-83
2021/03/21 01:16:34;;;;;;;7.90;4.85;;;-3.50;68.10;;;-5.06;53.17;95267.00;5035437;28;20219;-82
2021/03/21 01:19:03;;;;;;;7.63;5.15;;;-3.50;68.00;;;-5.07;53.70;95267.91;5037545;28;20195;-82
2021/03/21 01:21:32;;;;;;;9.57;5.80;;;-3.50;68.20;;;-5.09;54.12;95264.63;5035353;28;20217;-82
2021/03/21 01:23:59;;;;;;;9.80;5.68;;;-3.50;68.10;;;-5.08;53.56;95262.91;5022402;28;20201;-83
2021/03/21 01:26:28;;;;;;;6.95;5.35;;;-3.50;68.10;;;-5.08;53.78;95261.16;5050099;28;20823;-82
2021/03/21 01:28:57;;;;;;;9.27;5.00;;;-3.50;68.20;;;-5.11;53.56;95257.94;5018846;28;20188;-83
2021/03/21 01:31:26;;;;;;;7.55;5.30;;;-3.60;68.10;;;-5.11;53.85;95253.66;5018630;28;20635;-82
2021/03/21 01:33:54;;;;;;;8.77;5.32;;;-3.60;68.10;;;-5.11;53.77;95260.50;5002405;28;20213;-82
2021/03/21 01:36:35;;;;;;;7.70;5.35;;;-3.60;68.10;;;-5.11;54.02;95256.22;5027564;28;20216;-83
2021/03/21 01:39:15;;;;;;;7.80;5.45;;;-3.60;68.20;;;-5.11;53.77;95250.28;5038931;28;20192;-83
2021/03/21 01:41:42;;;;;;;7.97;5.55;;;-3.60;68.20;;;-5.09;53.77;95251.84;5054914;28;20674;-83
2021/03/21 01:44:15;;;;;;;8.57;5.07;;;-3.60;68.20;;;-5.04;53.88;95251.56;5055028;28;20238;-83
2021/03/21 01:46:57;;;;;;;8.77;5.68;;;-3.60;68.20;;;-5.03;53.77;95240.44;5069032;28;20216;-83
2021/03/21 01:49:35;;;;;;;9.85;4.97;;;-3.60;68.40;;;-5.03;53.72;95225.91;5035204;28;20238;-83
2021/03/21 01:52:06;;;;;;;7.90;5.45;;;-3.50;68.40;;;-4.95;53.97;95227.22;5018368;28;20224;-83
2021/03/21 01:54:35;;;;;;;7.07;5.45;;;-3.50;68.40;;;-4.88;53.98;95231.03;5020894;28;20665;-82
2021/03/21 01:57:03;;;;;;;11.10;6.43;;;-3.50;68.50;;;-4.83;54.19;95218.81;5054558;28;20223;-83
2021/03/21 01:59:35;;;;;;;8.15;5.35;;;-3.40;68.60;;;-4.73;53.91;95219.09;5038305;28;20215;-84
2021/03/21 02:02:04;;;;;;;8.40;5.78;;;-3.40;68.60;;;-4.66;53.92;95200.72;5038074;28;20226;-83
2021/03/21 02:04:32;;;;;;;9.00;5.90;;;-3.40;68.60;;;-4.56;53.91;95207.84;5054579;28;20195;-84
2021/03/21 02:07:10;;;;;;;8.52;6.13;;;-3.30;68.70;;;-4.50;54.03;95200.63;5050299;28;20222;-83
2021/03/21 02:09:57;;;;;;;9.88;6.20;;;-3.20;68.80;;;-4.39;54.04;95204.28;5017653;28;20709;-83
2021/03/21 02:13:28;;;;;;;9.23;5.43;;;-3.20;68.90;;;-4.31;54.02;95189.25;5034379;28;20279;-83
2021/03/21 02:16:06;;;;;;;8.07;5.85;;;-3.10;68.90;;;-4.27;54.01;95177.09;5036262;28;20273;-83
2021/03/21 02:19:33;;;;;;;7.32;5.00;;;-3.00;68.90;;;-4.12;53.64;95183.00;5036893;28;20224;-83
2021/03/21 02:22:12;;;;;;;6.20;5.10;;;-2.90;69.00;;;-4.04;54.08;95180.78;5032918;28;20213;-83
2021/03/21 02:25:24;;;;;;;10.43;6.18;;;-2.90;68.80;;;-3.98;53.59;95182.94;4999915;28;20204;-83
2021/03/21 02:28:32;;;;;;;7.30;5.63;;;-2.80;68.90;;;-3.93;53.61;95178.38;5065289;28;20801;-83
2021/03/21 02:31:10;;;;;;;7.78;5.43;;;-2.70;68.80;;;-3.88;53.47;95176.34;5054020;28;20212;-83
2021/03/21 02:34:00;;;;;;;7.32;5.28;;;-2.70;68.70;;;-3.81;53.45;95161.38;5053417;28;20230;-83
2021/03/21 02:36:52;;;;;;;8.80;5.43;;;-2.60;68.80;;;-3.75;53.53;95149.94;5017766;28;20249;-83
2021/03/21 02:39:35;;;;;;;7.05;5.32;;;-2.50;68.90;;;-3.69;53.33;95144.41;5033978;28;20216;-83
2021/03/21 02:42:09;;;;;;;8.25;5.32;;;-2.50;68.70;;;-3.65;53.46;95134.78;5033940;28;20652;-83
2021/03/21 02:44:46;;;;;;;7.40;5.10;;;-2.40;68.80;;;-3.62;53.57;95132.84;5002447;28;20204;-83
2021/03/21 02:47:22;;;;;;;7.32;5.18;;;-2.40;68.80;;;-3.56;53.51;95127.31;5001332;28;20307;-83
2021/03/21 02:49:52;;;;;;;8.73;5.50;;;-2.30;68.80;;;-3.51;53.44;95121.09;5016962;28;20207;-84
2021/03/21 02:52:44;;;;;;;7.82;5.60;;;-2.30;68.80;;;-3.46;53.47;95124.16;5036806;28;20671;-83
2021/03/21 02:55:35;;;;;;;8.48;4.82;;;-2.30;68.80;;;-3.44;53.33;95117.16;5053619;28;20215;-83
2021/03/21 02:58:21;;;;;;;7.85;5.55;;;-2.20;68.80;;;-3.38;53.55;95114.22;5053279;28;20200;-83
2021/03/21 03:01:03;;;;;;;7.18;4.70;;;-2.20;68.80;;;-3.32;53.49;95102.72;5053533;28;20231;-83
2021/03/21 03:03:32;;;;;;;8.00;5.80;;;-2.10;68.80;;;-3.27;53.66;95105.78;5053537;28;20200;-83
2021/03/21 03:06:06;;;;;;;7.63;5.40;;;-2.10;68.80;;;-3.23;53.34;95091.84;5036768;28;20223;-84
2021/03/21 03:08:59;;;;;;;8.18;5.35;;;-2.10;68.80;;;-3.16;53.36;95099.94;5036440;28;20206;-83
2021/03/21 03:11:49;;;;;;;7.32;5.97;;;-2.00;68.80;;;-3.15;53.43;95096.47;5052884;28;20566;-83
2021/03/21 03:14:22;;;;;;;7.82;5.70;;;-1.90;68.80;;;-3.12;53.27;95091.94;5036637;28;20193;-83
2021/03/21 03:17:04;;;;;;;7.75;5.53;;;-1.90;68.80;;;-3.07;53.31;95069.34;5036929;28;20224;-83
2021/03/21 03:20:24;;;;;;;9.90;6.00;;;-1.80;68.90;;;-3.01;53.29;95073.25;5069324;28;20208;-83
2021/03/21 03:23:20;;;;;;;6.80;5.13;;;-1.80;68.80;;;-2.95;53.40;95069.47;5053248;28;20274;-84
2021/03/21 03:26:00;;;;;;;7.57;5.55;;;-1.80;68.80;;;-2.90;53.25;95070.78;5067714;28;20204;-84
2021/03/21 03:28:46;;;;;;;8.20;5.63;;;-1.70;68.80;;;-2.86;53.42;95068.81;5036662;28;20246;-83
2021/03/21 03:31:32;;;;;;;8.15;5.47;;;-1.70;68.80;;;-2.81;53.32;95060.81;5052817;28;20237;-84
2021/03/21 03:33:59;;;;;;;7.70;5.65;;;-1.60;68.80;;;-2.75;52.92;95065.50;5052680;28;20212;-84
2021/03/21 03:36:26;;;;;;;9.10;6.28;;;-1.60;68.80;;;-2.69;53.33;95061.72;5052612;28;20218;-84
2021/03/21 03:38:52;;;;;;;9.50;5.30;;;-1.60;68.80;;;-2.64;53.13;95054.50;5069762;28;20196;-84
2021/03/21 03:41:59;;;;;;;8.50;6.07;;;-1.50;68.80;;;-2.61;52.84;95044.84;5036151;28;20301;-84
2021/03/21 03:44:29;;;;;;;7.20;5.50;;;-1.50;68.80;;;-2.56;53.35;95047.09;5036125;28;20573;-83
2021/03/21 03:47:14;;;;;;;7.05;5.20;;;-1.40;68.80;;;-2.50;53.27;95040.69;5069360;28;20227;-83
2021/03/21 03:50:15;;;;;;;9.45;6.20;;;-1.40;68.80;;;-2.46;53.15;95037.78;5052552;28;20224;-84
2021/03/21 03:53:03;;;;;;;7.50;6.00;;;-1.30;68.90;;;-2.40;53.32;95039.13;5033832;28;20606;-83
2021/03/21 03:55:57;;;;;;;8.65;6.22;;;-1.30;68.70;;;-2.36;52.94;95034.56;5029904;28;20220;-82
2021/03/21 03:58:38;;;;;;;9.60;6.05;;;-1.20;68.80;;;-2.36;53.04;95024.31;5025044;28;20579;-84
2021/03/21 04:01:14;;;;;;;7.93;5.68;;;-1.20;68.70;;;-2.28;53.18;95027.97;5007016;28;20223;-83
2021/03/21 04:03:56;;;;;;;8.65;5.88;;;-1.10;68.80;;;-2.24;53.01;95026.00;5020942;28;20219;-83
2021/03/21 04:06:41;;;;;;;7.45;5.35;;;-1.10;68.80;;;-2.18;53.06;95017.84;4999903;28;20232;-83
2021/03/21 04:09:27;;;;;;;7.20;5.53;;;-1.10;68.70;;;-2.11;53.19;95020.78;5047942;28;20726;-83
2021/03/21 04:12:10;;;;;;;8.43;5.70;;;-1.00;68.80;;;-2.07;52.97;95016.25;5015769;28;20232;-83
2021/03/21 04:14:57;;;;;;;6.25;5.32;;;-1.00;68.80;;;-2.04;53.03;95014.25;5000023;28;20208;-83
2021/03/21 04:17:32;;;;;;;8.02;5.47;;;-1.00;68.80;;;-1.99;52.86;95001.06;5015732;28;20221;-83
2021/03/21 04:20:17;;;;;;;8.05;6.20;;;-0.90;68.80;;;-1.97;52.80;94992.31;5015035;28;20196;-83
2021/03/21 04:22:50;;;;;;;9.13;6.68;;;-0.90;68.70;;;-2.00;52.58;94992.56;5032132;28;20720;-83
2021/03/21 04:25:23;;;;;;;9.48;6.38;;;-0.80;68.70;;;-1.94;52.99;94981.81;5031631;28;20208;-83
2021/03/21 04:28:11;;;;;;;10.98;6.63;;;-0.80;68.60;;;-1.90;52.92;94976.44;5031907;28;20221;-83
2021/03/21 04:30:47;;;;;;;8.98;6.03;;;-0.80;68.50;;;-1.90;52.90;94974.69;5031945;28;20220;-83
2021/03/21 04:33:24;;;;;;;9.50;6.53;;;-0.70;68.60;;;-1.85;52.82;94966.66;5015611;28;20220;-84
2021/03/21 04:36:01;;;;;;;7.75;5.68;;;-0.70;68.60;;;-1.82;53.22;94967.25;5048385;28;20267;-83
2021/03/21 04:38:34;;;;;;;6.43;4.93;;;-0.70;68.40;;;-1.77;52.90;94975.41;4999192;28;20193;-83
2021/03/21 04:41:06;;;;;;;6.90;5.55;;;-0.70;68.40;;;-1.73;52.91;94967.47;5031593;28;20216;-84
2021/03/21 04:43:44;;;;;;;6.78;5.22;;;-0.60;68.50;;;-1.68;52.90;94949.97;5053202;28;20226;-83
2021/03/21 04:46:48;;;;;;;7.28;5.10;;;-0.60;68.60;;;-1.66;52.78;94956.63;5032470;28;20231;-83
2021/03/21 04:49:19;;;;;;;8.48;5.80;;;-0.60;68.60;;;-1.65;52.70;94950.53;5051564;28;20194;-83
2021/03/21 04:51:48;;;;;;;8.50;5.55;;;-0.50;68.50;;;-1.63;52.86;94948.66;5035338;28;20257;-83
2021/03/21 04:54:45;;;;;;;10.43;6.00;;;-0.60;68.40;;;-1.61;52.85;94951.13;5035058;28;20262;-83
2021/03/21 04:57:18;;;;;;;7.43;6.18;;;-0.50;68.50;;;-1.58;52.70;94950.09;5018839;28;20224;-84
2021/03/21 04:59:46;;;;;;;6.45;5.60;;;-0.50;68.50;;;-1.56;52.93;94946.47;5034186;28;20197;-83
2021/03/21 05:02:31;;;;;;;8.93;5.85;;;-0.40;68.60;;;-1.51;52.91;94954.63;5043511;28;20303;-83
2021/03/21 05:05:01;;;;;;;7.95;5.57;;;-0.40;68.50;;;-1.47;52.78;94948.31;5011953;28;20204;-84
2021/03/21 05:07:34;;;;;;;7.40;5.78;;;-0.40;68.60;;;-1.42;52.81;94950.53;5028190;28;20227;-84
2021/03/21 05:10:22;;;;;;;9.60;6.25;;;-0.40;68.60;;;-1.42;52.92;94934.28;5013832;28;20678;-84
2021/03/21 05:12:58;;;;;;;9.35;6.78;;;-0.30;68.60;;;-1.38;52.80;94936.53;5029898;28;20766;-84
2021/03/21 05:15:44;;;;;;;10.77;6.95;;;-0.30;68.60;;;-1.36;52.93;94933.81;5029914;28;20196;-84
2021/03/21 05:18:28;;;;;;;9.45;6.35;;;-0.30;69.50;;;-1.30;52.53;94933.34;5029849;28;20191;-85
2021/03/21 05:21:17;;;;;;;9.48;6.03;;;-0.20;68.80;;;-1.28;52.82;94928.91;5011687;28;20235;-83
2021/03/21 05:24:11;;;;;;;7.57;5.53;;;-0.20;68.80;;;-1.27;52.84;94925.38;5013782;28;20197;-84
2021/03/21 05:27:10;;;;;;;9.05;7.22;;;-0.20;68.80;;;-1.25;52.87;94918.38;5046745;28;20228;-84
2021/03/21 05:30:19;;;;;;;8.95;6.97;;;-0.10;68.80;;;-1.21;52.79;94912.06;5043381;28;20552;-84
2021/03/21 05:32:50;;;;;;;8.15;6.10;;;-0.10;68.80;;;-1.15;52.72;94909.00;5036589;28;20231;-84
2021/03/21 05:35:36;;;;;;;7.20;5.50;;;-0.10;68.80;;;-1.09;52.69;94905.13;5005477;28;20207;-84
2021/03/21 05:38:40;;;;;;;6.88;5.38;;;0.00;68.80;;;-1.04;52.77;94909.91;5034805;28;20255;-84
2021/03/21 05:41:52;;;;;;;7.28;5.35;;;0.00;68.80;;;-0.99;52.79;94911.19;5035051;28;20270;-84
2021/03/21 05:44:57;;;;;;;7.88;6.03;;;0.10;68.90;;;-0.97;52.74;94906.72;5034762;28;20247;-84
2021/03/21 05:47:41;;;;;;;7.78;5.40;;;0.10;68.90;;;-0.94;52.79;94900.53;5035009;28;20236;-84
2021/03/21 05:50:29;;;;;;;10.05;6.47;;;0.20;69.00;;;-0.86;52.91;94895.56;5018543;28;20263;-84
2021/03/21 05:53:31;;;;;;;7.13;5.53;;;0.20;69.00;;;-0.79;52.87;94897.66;5035107;28;20231;-85
2021/03/21 05:56:08;;;;;;;7.60;5.38;;;0.20;69.00;;;-0.71;52.69;94885.00;5042498;28;20224;-84
2021/03/21 05:59:15;;;;;;;7.28;5.60;;;0.30;69.10;;;-0.63;52.54;94882.63;5051386;28;20196;-84
2021/03/21 06:02:20;;;;;;;8.80;6.20;;;0.40;69.20;;;-0.59;52.48;94891.72;5034651;28;20224;-84
2021/03/21 06:05:38;;;;;;;6.68;5.45;;;0.40;69.10;;;-0.52;52.75;94884.34;5035367;28;20223;-84
2021/03/21 06:08:33;;;;;;;6.00;5.20;;;0.50;69.20;;;-0.44;52.48;94881.13;5034467;28;20239;-84
2021/03/21 06:11:31;;;;;;;8.05;5.63;;;0.50;69.20;;;-0.36;52.51;94878.75;5034117;28;20227;-84
2021/03/21 06:14:36;;;;;;;8.07;5.90;;;0.60;69.30;;;-0.29;52.34;94874.72;5044127;28;20204;-82
2021/03/21 06:17:15;;;;;;;8.05;5.72;;;0.70;69.30;;;-0.24;52.15;94874.34;5037985;28;20227;-84
2021/03/21 06:20:33;;;;;;;11.57;6.75;;;0.70;69.40;;;-0.21;51.95;94876.66;5037845;28;20199;-84
2021/03/21 06:23:37;;;;;;;9.77;6.38;;;0.80;69.00;;;-0.17;51.94;94871.13;5038677;28;20223;-84
2021/03/21 06:26:37;;;;;;;8.60;6.05;;;0.90;68.80;;;-0.11;51.80;94884.47;5021059;28;20227;-85
2021/03/21 06:29:50;;;;;;;11.07;6.35;;;0.90;68.80;;;-0.06;51.79;94880.56;5034575;28;20557;-84
2021/03/21 06:32:48;;;;;;;8.45;5.80;;;0.90;68.70;;;-0.03;51.25;94872.56;5039536;28;20235;-84
2021/03/21 06:35:52;;;;;;;9.10;6.85;;;1.00;68.80;;;0.08;51.87;94883.75;5001810;28;20288;-84
2021/03/21 06:38:48;;;;;;;10.02;6.70;;;1.10;68.80;;;0.10;51.53;94895.56;5017727;28;20201;-84
2021/03/21 06:41:35;;;;;;;9.00;6.30;;;1.10;68.80;;;0.13;52.13;94873.88;5048424;28;20690;-84
2021/03/21 06:44:29;;;;;;;9.93;6.60;;;1.20;69.90;;;0.20;52.33;94876.75;5033532;28;20578;-84
2021/03/21 06:47:14;;;;;;;8.32;6.22;;;1.20;69.10;;;0.24;52.15;94880.72;5053945;28;20225;-84
2021/03/21 06:50:12;;;;;;;8.85;6.32;;;1.30;69.00;;;0.25;51.95;94870.25;5041448;28;20227;-85
2021/03/21 06:52:49;;;;;;;10.85;6.70;;;1.30;69.00;;;0.27;51.68;94875.28;5042671;28;20240;-84
2021/03/21 06:55:36;;;;;;;9.77;6.80;;;1.30;68.80;;;0.32;51.85;94871.38;5042179;28;20640;-85
2021/03/21 06:58:14;;;;;;;7.53;6.32;;;1.40;68.90;;;0.37;51.90;94852.13;5042548;28;20202;-84
2021/03/21 07:01:01;;;;;;;9.38;6.28;;;1.40;68.80;;;0.42;51.63;94857.69;5053611;28;20182;-85
2021/03/21 07:04:20;;;;;;;11.57;7.07;;;1.40;68.60;;;0.42;51.45;94866.25;5069558;28;20242;-84
2021/03/21 07:07:48;;;;;;;10.48;7.00;;;1.50;68.40;;;0.43;51.45;94847.25;5008955;28;20221;-85
2021/03/21 07:10:57;;;;;;;9.57;6.95;;;1.50;68.60;;;0.46;51.48;94846.16;5032022;28;20287;-85
2021/03/21 07:14:08;;;;;;;10.05;6.95;;;1.50;68.60;;;0.53;51.75;94846.47;5031228;28;20233;-85
2021/03/21 07:16:55;;;;;;;7.93;6.45;;;1.60;68.70;;;0.56;52.14;94834.13;5031535;28;20278;-84
2021/03/21 07:20:10;;;;;;;9.15;6.63;;;1.60;69.00;;;0.61;52.54;94839.69;5031477;28;20215;-83
2021/03/21 07:23:22;;;;;;;12.75;7.05;;;1.60;69.20;;;0.62;52.94;94832.75;5033366;28;20211;-84
2021/03/21 07:26:22;;;;;;;8.48;6.90;;;1.60;69.50;;;0.62;53.25;94812.94;5050806;28;20662;-84
2021/03/21 07:29:19;;;;;;;9.35;7.07;;;1.70;69.60;;;0.69;53.44;94814.97;5036417;28;20201;-83
2021/03/21 07:32:36;;;;;;;8.88;6.72;;;1.70;69.80;;;0.71;53.06;94816.47;5034543;28;20251;-82
2021/03/21 07:35:59;;;;;;;10.98;7.22;;;1.70;70.00;;;0.71;53.28;94810.47;5032855;28;20733;-84
2021/03/21 07:38:52;;;;;;;10.18;7.25;;;1.80;70.10;;;0.76;53.65;94822.06;5033118;28;20200;-84
2021/03/21 07:42:10;;;;;;;10.88;8.20;;;1.80;70.10;;;0.73;53.73;94813.75;5016123;28;20240;-85
2021/03/21 07:44:50;;;;;;;12.85;8.30;;;1.80;70.10;;;0.78;53.78;94809.00;5018617;28;20211;-85
2021/03/21 07:47:33;;;;;;;11.23;7.75;;;1.80;70.10;;;0.86;53.95;94818.69;5037060;28;20254;-85
2021/03/21 07:50:07;;;;;;;10.35;7.00;;;1.90;70.20;;;0.91;53.98;94825.06;5030953;28;20208;-85
2021/03/21 07:53:02;;;;;;;9.32;7.50;;;1.90;70.20;;;0.99;53.68;94810.66;5017722;28;20285;-86
2021/03/21 07:55:59;;;;;;;12.23;7.97;;;1.90;70.20;;;1.03;54.19;94810.25;5044434;28;20254;-84
2021/03/21 07:58:50;;;;;;;11.05;8.13;;;2.00;70.30;;;1.08;54.16;94810.66;5032612;28;20200;-85
2021/03/21 08:01:19;;;;;;;11.27;8.80;;;2.10;70.30;;;1.13;54.15;94802.50;5023529;28;20212;-84
2021/03/21 08:03:55;;;;;;;11.60;7.97;;;2.10;70.40;;;1.22;53.84;94795.69;5016324;28;20207;-84
2021/03/21 08:06:36;;;;;;;14.68;8.93;;;2.20;70.40;;;1.32;54.09;94812.03;5032370;28;20216;-82
2021/03/21 08:09:21;;;;;;;12.70;8.95;;;2.20;70.40;;;1.34;53.93;94804.13;5016522;28;20219;-83
2021/03/21 08:11:58;;;;;;;15.25;9.50;;;2.30;70.60;;;1.39;53.87;94801.94;5028601;28;20235;-83
2021/03/21 08:14:30;;;;;;;12.85;8.65;;;2.30;70.50;;;1.41;53.73;94789.72;5038477;28;20411;-84
2021/03/21 08:17:02;;;;;;;12.40;8.98;;;2.40;70.60;;;1.40;53.66;94793.25;5032267;28;20292;-83
2021/03/21 08:19:34;;;;;;;12.57;9.63;;;2.40;70.60;;;1.41;53.57;94784.53;5024925;28;20196;-82
2021/03/21 08:22:14;;;;;;;14.85;9.48;;;2.40;70.50;;;1.41;53.58;94781.94;5025369;28;20216;-84
2021/03/21 08:24:44;;;;;;;12.52;9.02;;;2.40;70.60;;;1.40;53.49;94775.97;5027274;28;20208;-83
2021/03/21 08:27:31;;;;;;;15.30;9.65;;;2.40;70.50;;;1.41;53.85;94781.94;5037342;28;20578;-82
2021/03/21 08:30:10;;;;;;;15.18;9.45;;;2.40;70.50;;;1.39;53.87;94789.84;5045402;28;20188;-83
2021/03/21 08:32:55;;;;;;;12.40;9.13;;;2.40;70.60;;;1.41;54.13;94785.34;5030575;28;20283;-83
2021/03/21 08:35:29;;;;;;;12.60;9.15;;;2.40;70.60;;;1.45;53.96;94783.28;5047374;28;20196;-84
2021/03/21 08:38:02;;;;;;;14.43;9.48;;;2.50;70.60;;;1.45;54.21;94783.28;5046744;28;20220;-84
2021/03/21 08:40:37;;;;;;;14.60;9.70;;;2.50;70.60;;;1.46;54.39;94784.94;5028550;28;20201;-84
2021/03/21 08:43:16;;;;;;;15.13;10.15;;;2.50;70.60;;;1.41;54.64;94782.75;5029606;28;20210;-83
2021/03/21 08:45:55;;;;;;;14.52;9.00;;;2.50;70.60;;;1.39;54.69;94771.75;5023700;28;20262;-84
2021/03/21 08:48:35;;;;;;;12.93;10.02;;;2.50;70.60;;;1.46;54.50;94789.28;5053884;28;20200;-85
2021/03/21 08:51:05;;;;;;;14.90;9.57;;;2.40;70.60;;;1.50;54.86;94785.47;5025455;28;20705;-84
2021/03/21 08:54:15;;;;;;;13.90;9.90;;;2.50;70.70;;;1.63;54.62;94772.25;5039945;28;20588;-83
2021/03/21 08:57:03;;;;;;;15.02;10.07;;;2.50;70.90;;;1.75;54.77;94755.63;5043597;28;20220;-84
2021/03/21 08:59:37;;;;;;;16.13;10.38;;;2.60;70.70;;;1.83;54.45;94758.31;5038237;28;20201;-83
2021/03/21 09:02:14;;;;;;;12.10;9.07;;;2.70;70.70;;;1.88;54.55;94768.22;5022535;28;20226;-82
2021/03/21 09:05:22;;;;;;;14.07;9.82;;;2.80;70.80;;;1.86;54.76;94758.00;5028225;28;20192;-83
2021/03/21 09:07:49;;;;;;;11.60;8.90;;;2.80;71.00;;;1.92;55.47;94751.47;5033543;28;20235;-84
2021/03/21 09:10:32;;;;;;;13.05;8.75;;;2.90;71.20;;;1.94;55.57;94769.44;5043625;28;20210;-84
2021/03/21 09:13:01;;;;;;;13.25;9.43;;;2.90;71.30;;;1.99;55.43;94746.53;5028817;28;20216;-83
2021/03/21 09:15:44;;;;;;;14.48;9.68;;;2.90;71.30;;;1.98;55.54;94742.31;5052759;28;20199;-84
2021/03/21 09:18:16;;;;;;;12.55;8.93;;;3.00;71.30;;;1.98;55.96;94752.66;5027120;28;20299;-84
2021/03/21 09:20:57;;;;;;;12.65;9.65;;;3.00;71.50;;;1.92;56.26;94741.94;5037791;28;20201;-85
2021/03/21 09:23:40;;;;;;;13.80;9.48;;;3.00;71.50;;;1.89;55.98;94723.28;5035271;28;20296;-83
2021/03/21 09:26:16;;;;;;;12.75;9.63;;;3.00;71.70;;;1.90;56.20;94730.94;5035210;28;20227;-85
2021/03/21 09:28:53;;;;;;;12.55;9.30;;;3.00;71.80;;;1.94;56.30;94728.03;5044516;28;20199;-84
2021/03/21 09:31:21;;;;;;;14.13;9.95;;;2.90;71.70;;;1.96;56.59;94728.72;5049426;28;20239;-85
2021/03/21 09:34:52;;;;;;;12.63;8.98;;;3.00;72.10;;;2.01;57.04;94721.34;5034937;28;20269;-84
2021/03/21 09:37:26;;;;;;;14.55;10.00;;;2.90;72.10;;;2.01;56.63;94705.81;5047421;28;20694;-85
2021/03/21 09:40:22;;;;;;;14.57;10.00;;;3.00;72.30;;;2.08;57.26;94727.56;5048331;28;20593;-85
2021/03/21 09:42:50;;;;;;;14.43;10.02;;;3.00;72.60;;;2.11;57.81;94709.16;5036448;28;20427;-85
2021/03/21 09:45:18;;;;;;;14.40;10.18;;;3.00;72.80;;;2.16;57.70;94708.72;5022163;28;20204;-84
2021/03/21 09:47:57;;;;;;;14.38;9.88;;;3.10;72.90;;;2.19;57.32;94700.69;5015673;28;20232;-86
2021/03/21 09:50:58;;;;;;;14.45;9.75;;;3.10;72.80;;;2.26;56.91;94698.31;5016664;28;20559;-85
2021/03/21 09:54:06;;;;;;;13.35;9.45;;;3.10;72.80;;;2.23;56.35;94691.66;5053620;28;20239;-85
2021/03/21 09:56:53;;;;;;;13.40;9.93;;;3.20;72.50;;;2.30;56.31;94697.88;5053025;28;20766;-86
2021/03/21 09:59:35;;;;;;;13.98;9.32;;;3.20;72.50;;;2.44;55.78;94693.16;5037316;28;20181;-85
2021/03/21 10:02:41;;;;;;;12.35;9.50;;;3.20;72.20;;;2.53;55.80;94685.34;5069778;28;20215;-85
2021/03/21 10:05:22;;;;;;;13.95;9.35;;;3.30;72.20;;;2.61;55.43;94689.75;5061946;28;20224;-86
2021/03/21 10:08:07;;;;;;;10.48;8.70;;;3.40;72.00;;;2.72;55.01;94689.56;5052627;28;20674;-85
2021/03/21 10:10:43;;;;;;;12.88;8.98;;;3.50;71.90;;;2.81;54.91;94684.44;5012334;28;20219;-84
2021/03/21 10:13:10;;;;;;;13.18;9.18;;;3.50;71.30;;;2.89;54.42;94674.13;5061365;28;20230;-86
2021/03/21 10:16:16;;;;;;;11.82;8.30;;;3.60;71.40;;;3.06;54.61;94682.84;5018581;28;20204;-86
2021/03/21 10:18:48;;;;;;;12.15;8.88;;;3.70;71.40;;;3.15;54.04;94686.31;5032860;28;20233;-86
2021/03/21 10:21:23;;;;;;;11.95;8.57;;;3.90;71.60;;;3.28;53.59;94681.53;5031348;28;20578;-85
2021/03/21 10:23:52;;;;;;;13.02;8.57;;;3.90;71.60;;;3.34;53.19;94680.13;5034225;28;20204;-86
2021/03/21 10:26:21;;;;;;;12.02;8.05;;;4.00;71.60;;;3.40;52.98;94671.72;5050727;28;20257;-85
2021/03/21 10:28:58;;;;;;;13.80;8.20;;;4.10;71.10;;;3.45;53.02;94668.69;5024963;28;20288;-86
2021/03/21 10:31:35;;;;;;;10.43;8.18;;;4.10;70.80;;;3.43;53.10;94665.41;5030822;28;20780;-85
2021/03/21 10:34:02;;;;;;;12.18;8.55;;;4.20;70.90;;;3.46;52.28;94665.94;5034148;28;20606;-86
2021/03/21 10:36:42;;;;;;;10.45;8.27;;;4.20;70.60;;;3.46;53.01;94663.34;5041347;28;20310;-86
2021/03/21 10:39:24;;;;;;;16.50;8.50;;;4.40;70.70;;;3.48;52.71;94666.59;5038843;28;20219;-86
2021/03/21 10:42:44;;;;;;;12.60;8.40;;;4.30;70.70;;;3.45;52.40;94673.88;5052935;28;20216;-86
2021/03/21 10:45:39;;;;;;;12.98;8.48;;;4.30;70.30;;;3.45;51.94;94672.06;5031226;28;20215;-86
2021/03/21 10:48:15;;;;;;;11.18;8.13;;;4.30;70.00;;;3.39;51.81;94667.50;5029445;28;20208;-86
2021/03/21 10:51:05;;;;;;;10.82;7.88;;;4.40;69.80;;;3.38;51.71;94681.44;5026968;28;20201;-86
2021/03/21 10:54:01;;;;;;;10.57;7.75;;;4.30;69.70;;;3.37;51.64;94682.41;5055923;28;20223;-87
2021/03/21 10:56:30;;;;;;;11.85;8.25;;;4.30;69.60;;;3.39;51.89;94677.88;5042875;28;20224;-86
2021/03/21 10:59:25;;;;;;;10.38;8.10;;;4.30;69.60;;;3.40;52.17;94684.69;5025803;28;20196;-86
2021/03/21 11:02:24;;;;;;;10.32;7.82;;;4.30;69.90;;;3.39;52.37;94672.69;5038900;28;20231;-86
2021/03/21 11:05:03;;;;;;;11.10;8.00;;;4.30;69.80;;;3.39;52.86;94670.09;5041532;28;20196;-86
2021/03/21 11:07:30;;;;;;;10.80;8.07;;;4.30;70.20;;;3.39;53.05;94649.34;5047520;28;20212;-86
2021/03/21 11:10:03;;;;;;;11.02;7.75;;;4.30;70.50;;;3.38;53.60;94645.13;5029917;28;20658;-86
2021/03/21 11:12:39;;;;;;;12.02;8.52;;;4.20;70.80;;;3.43;54.11;94647.28;5042873;28;20315;-86
2021/03/21 11:15:45;;;;;;;12.45;8.55;;;4.30;71.10;;;3.43;54.31;94645.50;5011758;28;20237;-86
2021/03/21 11:18:25;;;;;;;11.77;8.32;;;4.30;71.30;;;3.52;54.14;94656.72;5012191;28;20200;-85
2021/03/21 11:21:19;;;;;;;12.63;8.77;;;4.30;71.50;;;3.50;55.07;94656.06;5026246;28;20218;-86
2021/03/21 11:24:04;;;;;;;12.90;8.82;;;4.30;71.80;;;3.48;55.71;94648.44;5042352;28;20208;-86
2021/03/21 11:26:38;;;;;;;11.32;8.40;;;4.40;71.90;;;3.46;56.63;94652.97;5045509;28;20231;-85
2021/03/21 11:29:09;;;;;;;10.23;8.15;;;4.30;72.20;;;3.48;57.83;94642.47;5027967;28;20287;-84
2021/03/21 11:31:50;;;;;;;11.85;8.32;;;4.30;73.00;;;3.57;58.08;94628.53;5043418;28;20220;-85